Main page
Satellite images 15-day forecastsClimateMarine weather Cyclones Lightning AirportsFAQ Newsletter About
Weather : Europe Africa North America South America Asia Australia-Oceania Others
Languages Contact

Waddington, England

RAF

latitude: 53-10N, longitude: 000-31W, elevation: 68 m


METAR: EGXW 222250Z 24018KT 9999 BKN018 12/09 Q1011 WHT
TAF: missing

Time: 23:24 (23:24 UTC)

Current weather observation

The report was made 34 minutes ago, at 22:50 UTC
Wind 18 kt from the West/Southwest
Temperature 12°C
Humidity 82%
Pressure 1011 hPa
Visibility 10 km or more
Broken clouds at a height of 1800 ft

Change units
The information on this site is subject to a disclaimer
Weather : Europe Africa North America South America Asia Australia-Oceania Others
Satellite images 15-day forecastsClimateMarine weather Cyclones Lightning AirportsFAQ Languages Contact Newsletter About